createdAt,value
2018-09-03T00:01:34.465Z,96.27
2018-09-03T00:04:03.224Z,95.94
2018-09-03T00:06:32.008Z,95.67
2018-09-03T00:09:00.837Z,95.37
2018-09-03T00:11:29.606Z,95.43
2018-09-03T00:14:04.948Z,95.96
2018-09-03T00:16:33.843Z,95.66
2018-09-03T00:19:02.649Z,94.98
2018-09-03T00:21:31.571Z,94.94
2018-09-03T00:24:00.322Z,95.69
2018-09-03T00:26:29.115Z,96.20
2018-09-03T00:28:57.885Z,95.89
2018-09-03T00:31:31.991Z,95.66
2018-09-03T00:34:05.768Z,95.59
2018-09-03T00:36:39.599Z,95.80
2018-09-03T00:39:13.761Z,95.41
2018-09-03T00:41:47.785Z,95.06
2018-09-03T00:44:21.641Z,95.68
2018-09-03T00:46:58.353Z,96.50
2018-09-03T00:49:27.117Z,96.92
2018-09-03T00:51:55.912Z,96.47
2018-09-03T00:54:24.677Z,96.36
2018-09-03T00:56:53.616Z,96.44
2018-09-03T00:59:22.392Z,96.79
2018-09-03T01:01:51.412Z,96.97
2018-09-03T01:04:20.200Z,96.92
2018-09-03T01:06:48.952Z,97.22
2018-09-03T01:09:17.713Z,97.38
2018-09-03T01:11:46.476Z,97.78
2018-09-03T01:14:15.218Z,97.32
2018-09-03T01:16:43.997Z,96.25
2018-09-03T01:19:12.744Z,96.50
2018-09-03T01:21:41.557Z,96.28
2018-09-03T01:24:10.321Z,96.82
2018-09-03T01:26:39.117Z,97.67
2018-09-03T01:29:07.907Z,97.49
2018-09-03T01:31:36.673Z,97.52
2018-09-03T01:34:05.420Z,97.35
2018-09-03T01:36:34.222Z,97.50
2018-09-03T01:39:03.033Z,97.15
2018-09-03T01:41:31.790Z,96.61
2018-09-03T01:44:00.583Z,96.47
2018-09-03T01:46:29.323Z,96.44
2018-09-03T01:48:58.109Z,97.05
2018-09-03T01:51:26.865Z,97.17
2018-09-03T01:53:55.675Z,97.05
2018-09-03T01:56:24.416Z,96.72
2018-09-03T01:58:53.173Z,96.58
2018-09-03T02:01:21.909Z,96.86
2018-09-03T02:03:50.771Z,96.66
2018-09-03T02:06:19.881Z,96.82
2018-09-03T02:08:48.708Z,97.06
2018-09-03T02:11:17.478Z,97.62
2018-09-03T02:13:46.312Z,97.56
2018-09-03T02:16:15.053Z,97.41
2018-09-03T02:18:43.977Z,96.61
2018-09-03T02:21:12.797Z,96.44
2018-09-03T02:23:41.588Z,95.81
2018-09-03T02:26:10.355Z,95.48
2018-09-03T02:28:39.111Z,96.09
2018-09-03T02:31:07.880Z,96.57
2018-09-03T02:33:36.724Z,96.06
2018-09-03T02:36:05.775Z,96.74
2018-09-03T02:38:34.530Z,96.74
2018-09-03T02:41:03.316Z,97.32
2018-09-03T02:43:32.093Z,97.66
2018-09-03T02:46:00.853Z,97.88
2018-09-03T02:48:29.649Z,97.17
2018-09-03T02:50:58.536Z,96.42
2018-09-03T02:53:27.315Z,97.35
2018-09-03T02:55:56.080Z,96.91
2018-09-03T02:58:24.839Z,97.16
2018-09-03T03:00:53.576Z,96.58
2018-09-03T03:03:22.349Z,96.98
2018-09-03T03:05:51.148Z,97.42
2018-09-03T03:08:19.916Z,98.17
2018-09-03T03:10:48.669Z,98.08
2018-09-03T03:13:17.442Z,98.34
2018-09-03T03:15:46.284Z,98.61
2018-09-03T03:18:15.016Z,97.81
2018-09-03T03:20:43.785Z,97.98
2018-09-03T03:23:12.580Z,98.04
2018-09-03T03:25:41.341Z,98.33
2018-09-03T03:28:10.119Z,98.47
2018-09-03T03:30:38.900Z,98.69
2018-09-03T03:33:07.715Z,98.81
2018-09-03T03:35:36.496Z,99.10
2018-09-03T03:38:05.300Z,98.74
2018-09-03T03:40:34.096Z,98.50
2018-09-03T03:43:02.884Z,98.61
2018-09-03T03:45:31.637Z,99.08
2018-09-03T03:48:00.397Z,99.19
2018-09-03T03:50:29.160Z,99.69
2018-09-03T03:52:57.992Z,98.82
2018-09-03T03:55:26.811Z,99.17
2018-09-03T03:57:55.588Z,98.88
2018-09-03T04:00:24.365Z,99.13
2018-09-03T04:02:53.254Z,99.54
2018-09-03T04:05:22.693Z,99.46
2018-09-03T04:07:51.883Z,99.30
2018-09-03T04:10:20.870Z,99.17
2018-09-03T04:12:58.928Z,99.25
2018-09-03T04:15:28.188Z,99.62
2018-09-03T04:17:57.279Z,99.56
2018-09-03T04:20:26.481Z,99.77
2018-09-03T04:22:55.722Z,99.53
2018-09-03T04:25:24.909Z,99.16
2018-09-03T04:27:55.197Z,99.54
2018-09-03T04:30:24.455Z,99.66
2018-09-03T04:32:54.225Z,99.81
2018-09-03T04:35:23.393Z,99.73
2018-09-03T04:37:52.652Z,99.43
2018-09-03T04:40:21.786Z,99.31
2018-09-03T04:42:50.884Z,99.25
2018-09-03T04:45:20.184Z,98.58
2018-09-03T04:47:51.017Z,98.53
2018-09-03T04:50:20.332Z,98.50
2018-09-03T04:52:49.376Z,98.19
2018-09-03T04:55:18.506Z,98.33
2018-09-03T04:57:47.508Z,98.06
2018-09-03T05:00:16.561Z,98.17
2018-09-03T05:02:45.872Z,98.35
2018-09-03T05:05:14.940Z,97.71
2018-09-03T05:07:43.992Z,97.65
2018-09-03T05:10:12.904Z,97.80
2018-09-03T05:12:41.916Z,97.77
2018-09-03T05:15:10.679Z,97.35
2018-09-03T05:17:39.488Z,98.00
2018-09-03T05:20:08.425Z,98.32
2018-09-03T05:22:37.474Z,98.69
2018-09-03T05:25:06.488Z,98.02
2018-09-03T05:27:36.861Z,97.21
2018-09-03T05:30:06.337Z,96.76
2018-09-03T05:32:35.069Z,96.47
2018-09-03T05:35:03.832Z,96.49
2018-09-03T05:37:32.593Z,97.13
2018-09-03T05:40:01.343Z,97.74
2018-09-03T05:42:30.113Z,97.48
2018-09-03T05:44:58.863Z,97.43
2018-09-03T05:47:27.597Z,97.28
2018-09-03T05:49:56.347Z,97.71
2018-09-03T05:52:25.101Z,97.53
2018-09-03T05:54:53.903Z,98.04
2018-09-03T05:57:22.643Z,97.65
2018-09-03T05:59:51.428Z,97.70
2018-09-03T06:02:20.208Z,98.03
2018-09-03T06:04:49.063Z,97.87
2018-09-03T06:07:17.864Z,98.18
2018-09-03T06:09:46.627Z,98.03
2018-09-03T06:12:15.387Z,98.60
2018-09-03T06:14:44.140Z,98.43
2018-09-03T06:17:12.902Z,97.35
2018-09-03T06:19:41.651Z,97.42
2018-09-03T06:22:10.408Z,97.54
2018-09-03T06:24:39.346Z,97.73
2018-09-03T06:27:08.112Z,97.40
2018-09-03T06:29:36.869Z,97.42
2018-09-03T06:32:05.708Z,96.77
2018-09-03T06:34:34.560Z,95.55
2018-09-03T06:37:03.333Z,94.81
2018-09-03T06:39:32.111Z,95.10
2018-09-03T06:42:00.875Z,95.92
2018-09-03T06:44:29.772Z,96.37
2018-09-03T06:46:58.531Z,96.04
2018-09-03T06:49:27.307Z,95.34
2018-09-03T06:51:56.060Z,95.66
2018-09-03T06:54:24.920Z,94.63
2018-09-03T06:56:53.681Z,94.99
2018-09-03T06:59:22.465Z,94.28
2018-09-03T07:01:51.303Z,93.62
2018-09-03T07:04:20.064Z,93.73
2018-09-03T07:06:48.838Z,94.32
2018-09-03T07:09:18.093Z,94.71
2018-09-03T07:11:46.861Z,93.38
2018-09-03T07:14:15.611Z,94.11
2018-09-03T07:16:44.367Z,92.87
2018-09-03T07:19:19.685Z,91.99
2018-09-03T07:21:48.464Z,92.52
2018-09-03T07:24:17.225Z,91.83
2018-09-03T07:26:46.056Z,91.93
2018-09-03T07:29:14.807Z,91.65
2018-09-03T07:31:43.602Z,91.83
2018-09-03T07:34:12.426Z,92.37
2018-09-03T07:36:41.214Z,92.58
2018-09-03T07:39:10.386Z,92.45
2018-09-03T07:41:39.160Z,91.42
2018-09-03T07:44:07.976Z,90.45
2018-09-03T07:46:36.756Z,90.87
2018-09-03T07:49:05.515Z,90.94
2018-09-03T07:51:34.290Z,91.98
2018-09-03T07:54:03.069Z,92.26
2018-09-03T07:56:31.840Z,91.89
2018-09-03T07:59:00.892Z,92.61
2018-09-03T08:01:29.632Z,92.29
2018-09-03T08:03:58.387Z,88.30
2018-09-03T08:06:27.131Z,88.08
2018-09-03T08:08:56.873Z,89.36
2018-09-03T08:11:25.633Z,89.95
2018-09-03T08:13:54.396Z,88.33
2018-09-03T08:16:23.280Z,88.81
2018-09-03T08:18:52.106Z,87.77
2018-09-03T08:21:20.844Z,87.62
2018-09-03T08:23:49.599Z,87.58
2018-09-03T08:26:18.364Z,86.57
2018-09-03T08:28:47.129Z,85.95
2018-09-03T08:31:15.896Z,87.11
2018-09-03T08:33:44.737Z,85.59
2018-09-03T08:36:13.651Z,84.09
2018-09-03T08:38:42.424Z,82.49
2018-09-03T08:41:11.195Z,83.97
2018-09-03T08:43:39.991Z,83.86
2018-09-03T08:46:08.780Z,82.24
2018-09-03T08:48:37.675Z,82.34
2018-09-03T08:51:06.488Z,83.34
2018-09-03T08:53:35.272Z,82.69
2018-09-03T08:56:04.107Z,82.78
2018-09-03T08:58:32.875Z,81.88
2018-09-03T09:01:01.645Z,81.35
2018-09-03T09:03:35.487Z,81.78
2018-09-03T09:06:04.294Z,80.57
2018-09-03T09:08:33.062Z,81.05
2018-09-03T09:11:01.820Z,80.75
2018-09-03T09:13:30.573Z,79.88
2018-09-03T09:15:59.709Z,81.03
2018-09-03T09:18:28.460Z,82.78
2018-09-03T09:20:57.197Z,82.98
2018-09-03T09:23:25.923Z,84.85
2018-09-03T09:25:54.697Z,84.67
2018-09-03T09:28:23.451Z,84.19
2018-09-03T09:30:52.792Z,85.41
2018-09-03T09:33:21.604Z,84.15
2018-09-03T09:35:50.394Z,82.61
2018-09-03T09:38:19.142Z,81.88
2018-09-03T09:40:47.929Z,81.08
2018-09-03T09:43:16.772Z,80.21
2018-09-03T09:45:45.526Z,81.43
2018-09-03T09:48:14.289Z,83.28
2018-09-03T09:50:43.060Z,83.70
2018-09-03T09:53:11.836Z,86.21
2018-09-03T09:55:40.605Z,87.76
2018-09-03T09:58:09.391Z,87.73
2018-09-03T10:00:43.303Z,87.33
2018-09-03T10:03:12.177Z,88.89
2018-09-03T10:05:41.035Z,89.27
2018-09-03T10:08:09.816Z,91.79
2018-09-03T10:10:38.996Z,92.90
2018-09-03T10:13:08.086Z,92.82
2018-09-03T10:15:37.177Z,92.74
2018-09-03T10:18:06.471Z,91.77
2018-09-03T10:20:35.715Z,91.99
2018-09-03T10:23:04.960Z,92.58
2018-09-03T10:25:34.152Z,92.04
2018-09-03T10:28:03.168Z,92.62
2018-09-03T10:30:31.929Z,92.97
2018-09-03T10:33:00.789Z,91.07
2018-09-03T10:35:29.589Z,90.87
2018-09-03T10:37:58.377Z,91.24
2018-09-03T10:40:27.340Z,92.24
2018-09-03T10:42:56.849Z,92.08
2018-09-03T10:45:25.667Z,92.71
2018-09-03T10:47:54.421Z,92.92
2018-09-03T10:50:23.180Z,92.62
2018-09-03T10:52:51.989Z,92.89
2018-09-03T10:55:20.761Z,93.20
2018-09-03T10:57:49.538Z,92.08
2018-09-03T11:00:18.327Z,92.75
2018-09-03T11:02:47.076Z,92.48
2018-09-03T11:05:15.908Z,92.23
2018-09-03T11:07:44.885Z,89.97
2018-09-03T11:10:13.649Z,85.86
2018-09-03T11:12:42.432Z,85.96
2018-09-03T11:15:11.217Z,86.98
2018-09-03T11:17:39.981Z,88.97
2018-09-03T11:20:11.937Z,86.17
2018-09-03T11:22:40.709Z,85.32
2018-09-03T11:25:09.598Z,86.62
2018-09-03T11:27:38.467Z,83.98
2018-09-03T11:30:08.049Z,81.56
2018-09-03T11:32:36.819Z,84.27
2018-09-03T11:35:05.655Z,84.54
2018-09-03T11:37:34.395Z,84.66
2018-09-03T11:40:03.165Z,84.74
2018-09-03T11:42:31.944Z,84.42
2018-09-03T11:45:00.720Z,81.24
2018-09-03T11:47:29.482Z,83.25
2018-09-03T11:49:58.261Z,83.84
2018-09-03T11:52:27.051Z,83.19
2018-09-03T11:54:55.815Z,81.11
2018-09-03T11:57:24.598Z,80.73
2018-09-03T11:59:53.408Z,79.47
2018-09-03T12:02:22.226Z,79.30
2018-09-03T12:04:51.033Z,78.04
2018-09-03T12:07:19.874Z,79.39
2018-09-03T12:09:48.646Z,79.73
2018-09-03T12:12:17.425Z,79.30
2018-09-03T12:14:48.627Z,79.23
2018-09-03T12:17:17.464Z,79.98
2018-09-03T12:19:46.218Z,80.63
2018-09-03T12:22:14.971Z,79.61
2018-09-03T12:24:43.724Z,79.55
2018-09-03T12:27:12.527Z,81.37
2018-09-03T12:29:41.271Z,76.97
2018-09-03T12:32:10.063Z,77.79
2018-09-03T12:34:38.819Z,79.20
2018-09-03T12:37:07.605Z,78.07
2018-09-03T12:39:36.347Z,78.98
2018-09-03T12:42:05.184Z,79.53
2018-09-03T12:44:33.928Z,80.25
2018-09-03T12:47:02.708Z,77.18
2018-09-03T12:49:31.456Z,77.36
2018-09-03T12:52:00.257Z,71.94
2018-09-03T12:54:29.033Z,71.34
2018-09-03T12:56:57.780Z,69.51
2018-09-03T12:59:26.520Z,65.74
2018-09-03T13:01:55.265Z,68.17
2018-09-03T13:04:24.113Z,67.40
2018-09-03T13:06:52.846Z,66.42
2018-09-03T13:09:21.623Z,63.91
2018-09-03T13:11:50.395Z,63.52
2018-09-03T13:14:19.167Z,62.81
2018-09-03T13:16:47.945Z,64.11
2018-09-03T13:19:17.090Z,65.58
2018-09-03T13:21:45.872Z,64.49
2018-09-03T13:24:14.645Z,68.48
2018-09-03T13:26:43.507Z,69.57
2018-09-03T13:29:12.260Z,65.13
2018-09-03T13:31:41.017Z,68.37
2018-09-03T13:34:09.832Z,66.43
2018-09-03T13:36:38.629Z,64.83
2018-09-03T13:39:09.182Z,68.85
2018-09-03T13:41:37.971Z,66.98
2018-09-03T13:44:06.893Z,67.91
2018-09-03T13:46:35.720Z,67.77
2018-09-03T13:49:04.529Z,68.38
2018-09-03T13:51:33.272Z,68.75
2018-09-03T13:54:02.036Z,69.61
2018-09-03T13:56:30.924Z,68.64
2018-09-03T13:58:59.654Z,68.05
2018-09-03T14:01:28.404Z,64.96
2018-09-03T14:03:57.212Z,62.60
2018-09-03T14:06:26.057Z,64.99
2018-09-03T14:08:54.886Z,61.84
2018-09-03T14:11:23.689Z,63.16
2018-09-03T14:13:52.505Z,63.96
2018-09-03T14:16:21.359Z,63.94
2018-09-03T14:18:50.105Z,66.97
2018-09-03T14:21:18.949Z,68.33
2018-09-03T14:23:47.764Z,69.40
2018-09-03T14:26:16.553Z,68.86
2018-09-03T14:28:45.323Z,69.72
2018-09-03T14:31:14.069Z,70.85
2018-09-03T14:33:42.876Z,69.42
2018-09-03T14:36:11.634Z,72.95
2018-09-03T14:38:40.368Z,72.75
2018-09-03T14:41:09.131Z,69.08
2018-09-03T14:43:37.865Z,68.53
2018-09-03T14:46:06.820Z,69.61
2018-09-03T14:48:35.560Z,68.44
2018-09-03T14:51:04.395Z,69.05
2018-09-03T14:53:33.126Z,71.44
2018-09-03T14:56:01.917Z,70.42
2018-09-03T14:58:30.727Z,70.16
2018-09-03T15:00:59.504Z,71.39
2018-09-03T15:03:28.281Z,70.67
2018-09-03T15:05:57.023Z,71.64
2018-09-03T15:08:25.870Z,72.71
2018-09-03T15:10:54.629Z,72.96
2018-09-03T15:13:23.401Z,72.18
2018-09-03T15:15:52.174Z,74.10
2018-09-03T15:18:20.927Z,75.90
2018-09-03T15:20:49.717Z,74.81
2018-09-03T15:23:18.464Z,74.43
2018-09-03T15:25:47.205Z,74.30
2018-09-03T15:28:15.981Z,74.98
2018-09-03T15:30:44.754Z,75.41
2018-09-03T15:33:13.532Z,74.54
2018-09-03T15:35:42.383Z,75.62
2018-09-03T15:38:11.253Z,75.25
2018-09-03T15:40:40.204Z,76.15
2018-09-03T15:43:08.979Z,76.28
2018-09-03T15:45:37.833Z,75.82
2018-09-03T15:48:06.675Z,76.85
2018-09-03T15:50:35.495Z,78.60
2018-09-03T15:53:04.300Z,77.91
2018-09-03T15:55:33.045Z,78.69
2018-09-03T15:58:01.819Z,79.61
2018-09-03T16:00:30.568Z,77.14
2018-09-03T16:02:59.370Z,78.08
2018-09-03T16:05:28.152Z,78.05
2018-09-03T16:07:56.909Z,75.87
2018-09-03T16:10:25.706Z,75.85
2018-09-03T16:12:54.436Z,75.43
2018-09-03T16:15:23.195Z,75.45
2018-09-03T16:17:52.104Z,75.69
2018-09-03T16:20:20.871Z,76.15
2018-09-03T16:22:49.639Z,74.68
2018-09-03T16:25:18.459Z,75.47
2018-09-03T16:27:47.241Z,74.92
2018-09-03T16:30:16.002Z,74.90
2018-09-03T16:32:44.808Z,74.26
2018-09-03T16:35:13.568Z,73.63
2018-09-03T16:37:42.402Z,72.83
2018-09-03T16:40:11.331Z,74.40
2018-09-03T16:42:40.121Z,72.80
2018-09-03T16:45:08.948Z,72.58
2018-09-03T16:47:37.706Z,73.79
2018-09-03T16:50:06.545Z,71.97
2018-09-03T16:52:35.533Z,72.02
2018-09-03T16:55:04.400Z,72.67
2018-09-03T16:57:33.145Z,72.16
2018-09-03T17:00:01.912Z,72.88
2018-09-03T17:02:30.734Z,73.37
2018-09-03T17:04:59.491Z,73.78
2018-09-03T17:07:28.418Z,73.47
2018-09-03T17:09:57.191Z,74.15
2018-09-03T17:12:26.183Z,74.16
2018-09-03T17:14:54.980Z,73.21
2018-09-03T17:17:24.048Z,73.08
2018-09-03T17:19:52.856Z,72.79
2018-09-03T17:22:21.686Z,74.45
2018-09-03T17:24:50.509Z,74.43
2018-09-03T17:27:19.340Z,76.70
2018-09-03T17:29:48.144Z,76.59
2018-09-03T17:32:16.905Z,78.06
2018-09-03T17:34:45.669Z,78.88
2018-09-03T17:37:14.468Z,78.26
2018-09-03T17:39:43.297Z,78.80
2018-09-03T17:42:12.060Z,79.98
2018-09-03T17:44:40.877Z,80.13
2018-09-03T17:47:09.659Z,79.45
2018-09-03T17:49:38.440Z,80.18
2018-09-03T17:52:07.248Z,80.82
2018-09-03T17:54:36.025Z,81.48
2018-09-03T17:57:04.845Z,79.67
2018-09-03T17:59:33.649Z,80.76
2018-09-03T18:02:02.491Z,80.98
2018-09-03T18:04:31.271Z,83.82
2018-09-03T18:07:00.025Z,86.16
2018-09-03T18:09:28.813Z,88.48
2018-09-03T18:11:57.611Z,90.23
2018-09-03T18:14:26.372Z,92.86
2018-09-03T18:16:55.108Z,95.45
2018-09-03T18:19:23.898Z,96.56
2018-09-03T18:21:52.726Z,98.28
2018-09-03T18:24:21.455Z,98.76
2018-09-03T18:26:50.212Z,98.56
2018-09-03T18:29:18.944Z,98.31
2018-09-03T18:31:47.923Z,97.99
2018-09-03T18:34:16.696Z,98.67
2018-09-03T18:36:45.472Z,99.30
2018-09-03T18:39:14.220Z,100.00
2018-09-03T18:41:43.022Z,100.00
2018-09-03T18:44:11.772Z,100.00
2018-09-03T18:46:40.548Z,100.00
2018-09-03T18:49:09.297Z,98.72
2018-09-03T18:51:38.083Z,97.71
2018-09-03T18:54:06.973Z,97.21
2018-09-03T18:56:35.752Z,96.39
2018-09-03T18:59:04.572Z,96.40
2018-09-03T19:01:33.334Z,96.27
2018-09-03T19:04:02.128Z,97.43
2018-09-03T19:06:30.898Z,98.45
2018-09-03T19:08:59.708Z,98.66
2018-09-03T19:11:28.561Z,98.99
2018-09-03T19:13:57.347Z,99.14
2018-09-03T19:16:26.175Z,99.19
2018-09-03T19:18:55.022Z,100.00
2018-09-03T19:21:23.788Z,100.00
2018-09-03T19:23:52.544Z,99.08
2018-09-03T19:26:24.257Z,99.54
2018-09-03T19:28:53.012Z,99.72
2018-09-03T19:31:21.994Z,100.00
2018-09-03T19:33:50.858Z,100.00
2018-09-03T19:36:19.713Z,100.00
2018-09-03T19:38:48.476Z,100.00
2018-09-03T19:41:17.233Z,99.84
2018-09-03T19:43:45.996Z,100.00
2018-09-03T19:46:14.744Z,100.00
2018-09-03T19:48:43.622Z,100.00
2018-09-03T19:51:12.426Z,100.00
2018-09-03T19:53:41.221Z,100.00
2018-09-03T19:56:10.011Z,100.00
2018-09-03T19:58:38.808Z,100.00
2018-09-03T20:01:07.641Z,100.00
2018-09-03T20:03:36.439Z,100.00
2018-09-03T20:06:05.372Z,100.00
2018-09-03T20:08:34.307Z,100.00
2018-09-03T20:11:03.172Z,100.00
2018-09-03T20:13:32.297Z,100.00
2018-09-03T20:16:01.067Z,100.00
2018-09-03T20:18:29.876Z,100.00
2018-09-03T20:20:58.792Z,100.00
2018-09-03T20:23:27.667Z,100.00
2018-09-03T20:25:56.551Z,100.00
2018-09-03T20:28:25.566Z,100.00
2018-09-03T20:30:54.549Z,100.00
2018-09-03T20:33:23.324Z,100.00
2018-09-03T20:35:52.108Z,100.00
2018-09-03T20:38:20.926Z,100.00
2018-09-03T20:40:49.805Z,100.00
2018-09-03T20:43:18.761Z,100.00
2018-09-03T20:45:47.750Z,100.00
2018-09-03T20:48:16.788Z,100.00
2018-09-03T20:50:45.647Z,100.00
2018-09-03T20:53:14.412Z,100.00
2018-09-03T20:55:43.291Z,100.00
2018-09-03T20:58:12.073Z,100.00
2018-09-03T21:00:41.100Z,100.00
2018-09-03T21:03:10.120Z,100.00
2018-09-03T21:05:39.462Z,100.00
2018-09-03T21:08:08.567Z,100.00
2018-09-03T21:10:37.367Z,100.00
2018-09-03T21:13:06.252Z,100.00
2018-09-03T21:15:35.124Z,100.00
2018-09-03T21:18:03.977Z,100.00
2018-09-03T21:20:32.888Z,100.00
2018-09-03T21:23:01.645Z,100.00
2018-09-03T21:25:30.459Z,100.00
2018-09-03T21:27:59.352Z,100.00
2018-09-03T21:30:28.268Z,100.00
2018-09-03T21:32:57.085Z,100.00
2018-09-03T21:35:25.882Z,100.00
2018-09-03T21:37:54.880Z,100.00
2018-09-03T21:40:23.746Z,100.00
2018-09-03T21:42:52.548Z,100.00
2018-09-03T21:45:21.357Z,100.00
2018-09-03T21:47:50.165Z,100.00
2018-09-03T21:50:19.067Z,100.00
2018-09-03T21:52:47.940Z,100.00
2018-09-03T21:55:16.767Z,100.00
2018-09-03T21:57:45.603Z,100.00
2018-09-03T22:00:14.481Z,100.00
2018-09-03T22:02:43.345Z,100.00
2018-09-03T22:05:12.197Z,100.00
2018-09-03T22:07:41.030Z,100.00
2018-09-03T22:10:09.883Z,100.00
2018-09-03T22:12:38.739Z,100.00
2018-09-03T22:15:07.700Z,100.00
2018-09-03T22:17:36.564Z,100.00
2018-09-03T22:20:05.691Z,100.00
2018-09-03T22:22:34.928Z,100.00
2018-09-03T22:25:03.878Z,100.00
2018-09-03T22:27:32.843Z,100.00
2018-09-03T22:30:01.654Z,100.00
2018-09-03T22:32:30.508Z,100.00
2018-09-03T22:34:59.308Z,100.00
2018-09-03T22:37:28.215Z,100.00
2018-09-03T22:39:56.975Z,100.00
2018-09-03T22:42:27.215Z,100.00
2018-09-03T22:44:57.480Z,100.00
2018-09-03T22:47:26.273Z,100.00
2018-09-03T22:49:55.123Z,100.00
2018-09-03T22:52:23.919Z,100.00
2018-09-03T22:54:52.692Z,100.00
2018-09-03T22:57:21.484Z,100.00
2018-09-03T22:59:50.261Z,100.00
2018-09-03T23:02:19.049Z,100.00
2018-09-03T23:04:47.827Z,100.00
2018-09-03T23:07:16.662Z,100.00
2018-09-03T23:09:45.459Z,100.00
2018-09-03T23:12:14.484Z,100.00
2018-09-03T23:14:43.246Z,100.00
2018-09-03T23:17:12.052Z,100.00
2018-09-03T23:19:40.863Z,100.00
2018-09-03T23:22:10.132Z,100.00
2018-09-03T23:24:38.934Z,100.00
2018-09-03T23:27:07.717Z,100.00
2018-09-03T23:29:36.526Z,100.00
2018-09-03T23:32:05.339Z,100.00
2018-09-03T23:34:34.115Z,100.00
2018-09-03T23:37:02.900Z,100.00
2018-09-03T23:39:31.733Z,100.00
2018-09-03T23:42:00.516Z,100.00
2018-09-03T23:44:29.319Z,100.00
2018-09-03T23:46:58.150Z,100.00
2018-09-03T23:49:26.917Z,100.00
2018-09-03T23:51:55.695Z,100.00
2018-09-03T23:54:24.462Z,100.00
2018-09-03T23:56:53.256Z,100.00
2018-09-03T23:59:22.082Z,100.00
